createdAt,value
2022-10-08T09:03:15.420Z,99.90
2022-10-08T09:05:47.197Z,99.90
2022-10-08T09:08:20.486Z,99.90
2022-10-08T09:10:55.604Z,99.90
2022-10-08T09:13:28.070Z,99.90
2022-10-08T09:15:57.302Z,99.90
2022-10-08T09:18:27.165Z,99.90
2022-10-08T09:20:55.574Z,99.90
2022-10-08T09:23:26.761Z,99.90
2022-10-08T09:26:00.228Z,99.90
2022-10-08T09:28:46.977Z,99.90
2022-10-08T09:31:25.847Z,99.90
2022-10-08T09:34:04.668Z,99.90
2022-10-08T09:36:39.238Z,99.90
2022-10-08T09:39:18.507Z,99.90
2022-10-08T09:41:49.585Z,99.90
2022-10-08T09:44:21.957Z,99.80
2022-10-08T09:47:05.416Z,99.70
2022-10-08T09:49:38.353Z,99.60
2022-10-08T09:52:17.208Z,99.60
2022-10-08T09:54:49.381Z,99.50
2022-10-08T09:57:20.613Z,99.30
2022-10-08T09:59:53.536Z,99.20
2022-10-08T10:02:34.138Z,98.90
2022-10-08T10:05:06.476Z,98.70
2022-10-08T10:07:41.618Z,98.80
2022-10-08T10:10:33.399Z,98.80
2022-10-08T10:13:12.494Z,98.80
2022-10-08T10:15:59.613Z,98.70
2022-10-08T10:18:39.982Z,98.30
2022-10-08T10:21:17.088Z,98.50
2022-10-08T10:24:01.639Z,98.40
2022-10-08T10:26:35.575Z,98.20
2022-10-08T10:29:10.555Z,98.10
2022-10-08T10:31:44.143Z,98.20
2022-10-08T10:34:17.142Z,98.10
2022-10-08T10:36:52.831Z,97.70
2022-10-08T10:39:32.993Z,97.80
2022-10-08T10:42:12.152Z,97.60
2022-10-08T10:44:53.460Z,97.90
2022-10-08T10:47:27.127Z,98.10
2022-10-08T10:50:00.021Z,98.00
2022-10-08T10:52:49.885Z,97.80
2022-10-08T10:55:27.006Z,97.60
2022-10-08T10:58:23.280Z,97.70
2022-10-08T11:01:04.069Z,98.00
2022-10-08T11:03:41.733Z,97.90
2022-10-08T11:06:41.801Z,97.80
2022-10-08T11:09:22.721Z,97.70
2022-10-08T11:11:56.095Z,97.60
2022-10-08T11:14:42.536Z,97.70
2022-10-08T11:17:31.166Z,97.70
2022-10-08T11:20:22.458Z,97.80
2022-10-08T11:23:01.856Z,97.90
2022-10-08T11:26:02.773Z,97.90
2022-10-08T11:28:37.411Z,97.80
2022-10-08T11:31:16.504Z,98.10
2022-10-08T11:33:47.284Z,98.00
2022-10-08T11:36:23.491Z,97.90
2022-10-08T11:38:58.126Z,98.00
2022-10-08T11:41:36.094Z,98.10
2022-10-08T11:44:08.880Z,97.90
2022-10-08T11:46:37.834Z,98.00
2022-10-08T11:49:55.246Z,98.10
2022-10-08T11:52:29.985Z,98.10
2022-10-08T11:55:01.054Z,98.10
2022-10-08T11:58:26.535Z,97.90
2022-10-08T12:06:10.274Z,97.40
2022-10-08T12:09:00.568Z,97.60
2022-10-08T12:13:23.322Z,97.50
2022-10-08T12:16:33.378Z,97.60
2022-10-08T12:19:43.370Z,97.90
2022-10-08T12:23:32.111Z,97.60
2022-10-08T12:27:33.528Z,97.70
2022-10-08T12:30:46.980Z,97.60
2022-10-08T12:33:42.054Z,97.50
2022-10-08T12:36:22.794Z,97.30
2022-10-08T12:42:25.093Z,97.50
2022-10-08T12:45:31.676Z,97.30
2022-10-08T12:48:17.431Z,97.60
2022-10-08T12:51:08.076Z,97.30
2022-10-08T12:53:41.404Z,97.40
2022-10-08T12:56:18.013Z,97.30
2022-10-08T12:58:55.755Z,97.40
2022-10-08T13:01:26.275Z,97.10
2022-10-08T13:04:27.828Z,97.00
2022-10-08T13:06:58.105Z,97.10
2022-10-08T13:09:35.974Z,96.80
2022-10-08T13:12:13.884Z,96.60
2022-10-08T13:15:01.373Z,96.20
2022-10-08T13:17:39.797Z,96.50
2022-10-08T13:20:18.017Z,96.60
2022-10-08T13:23:51.582Z,96.70
2022-10-08T13:26:54.984Z,96.70
2022-10-08T13:29:49.064Z,96.90
2022-10-08T13:33:57.659Z,96.60
2022-10-08T13:36:02.778Z,96.60
2022-10-08T13:38:51.833Z,96.60
2022-10-08T13:42:28.605Z,96.60
2022-10-08T13:45:06.525Z,96.70
2022-10-08T13:47:37.854Z,96.50
2022-10-08T13:50:55.072Z,96.30
2022-10-08T13:53:29.072Z,96.20
2022-10-08T13:56:33.024Z,96.30
2022-10-08T13:59:31.006Z,96.60
2022-10-08T14:03:11.049Z,96.40
2022-10-08T14:05:26.711Z,96.10
2022-10-08T14:08:25.936Z,96.50
2022-10-08T14:11:02.839Z,96.20
2022-10-08T14:13:49.313Z,96.20
2022-10-08T14:16:45.986Z,96.10
2022-10-08T14:19:36.836Z,96.20
2022-10-08T14:22:38.953Z,95.90
2022-10-08T14:29:07.204Z,95.90
2022-10-08T14:31:44.212Z,95.80
2022-10-08T14:34:56.346Z,95.70
2022-10-08T14:37:39.626Z,95.60
2022-10-08T14:41:07.171Z,96.20
2022-10-08T14:44:12.215Z,95.50
2022-10-08T14:46:49.049Z,95.80
2022-10-08T14:51:36.192Z,95.70
2022-10-08T14:53:34.094Z,95.20
2022-10-08T14:57:15.091Z,95.80
2022-10-08T15:01:03.446Z,95.10
2022-10-08T15:03:59.212Z,95.10
2022-10-08T15:11:12.615Z,95.50
2022-10-08T15:13:41.023Z,95.60
2022-10-08T15:16:12.867Z,95.30
2022-10-08T15:18:41.301Z,95.60
2022-10-08T15:21:12.077Z,95.60
2022-10-08T15:23:40.486Z,95.40
2022-10-08T15:26:14.777Z,95.10
2022-10-08T15:28:46.033Z,95.50
2022-10-08T15:31:17.544Z,95.60
2022-10-08T15:33:48.090Z,95.40
2022-10-08T15:36:23.839Z,95.20
2022-10-08T15:38:58.406Z,95.10
2022-10-08T15:41:28.698Z,95.00
2022-10-08T15:43:57.791Z,95.20
2022-10-08T15:46:29.016Z,95.50
2022-10-08T15:48:58.544Z,95.00
2022-10-08T15:51:28.551Z,94.80
2022-10-08T15:53:57.050Z,94.90
2022-10-08T15:56:25.482Z,95.30
2022-10-08T15:58:54.074Z,95.20
2022-10-08T16:01:24.478Z,95.50
2022-10-08T16:03:55.660Z,95.50
2022-10-08T16:06:26.109Z,95.60
2022-10-08T16:08:58.228Z,96.00
2022-10-08T16:11:29.105Z,95.60
2022-10-08T16:14:01.975Z,95.70
2022-10-08T16:16:31.089Z,95.90
2022-10-08T16:19:01.485Z,95.80
2022-10-08T16:21:32.149Z,95.90
2022-10-08T16:24:03.085Z,95.80
2022-10-08T16:26:33.823Z,95.90
2022-10-08T16:29:04.982Z,95.90
2022-10-08T16:31:37.113Z,95.80
2022-10-08T16:34:08.644Z,95.80
2022-10-08T16:36:37.572Z,95.90
2022-10-08T16:39:08.690Z,95.90
2022-10-08T16:41:38.730Z,96.00
2022-10-08T16:44:12.603Z,96.10
2022-10-08T16:46:43.778Z,96.00
2022-10-08T16:49:22.800Z,96.10
2022-10-08T16:51:54.054Z,96.10
2022-10-08T16:54:23.965Z,96.10
2022-10-08T16:56:52.562Z,95.90
2022-10-08T16:59:23.720Z,96.10
2022-10-08T17:01:55.686Z,96.50
2022-10-08T17:04:27.757Z,96.50
2022-10-08T17:06:56.374Z,96.50
2022-10-08T17:09:26.210Z,96.50
2022-10-08T17:11:54.638Z,96.30
2022-10-08T17:14:23.182Z,96.20
2022-10-08T17:16:52.229Z,96.20
2022-10-08T17:19:20.860Z,96.50
2022-10-08T17:21:49.337Z,96.60
2022-10-08T17:24:17.956Z,96.60
2022-10-08T17:26:50.128Z,96.40
2022-10-08T17:29:18.525Z,96.70
2022-10-08T17:31:47.051Z,96.50
2022-10-08T17:34:15.565Z,96.30
2022-10-08T17:36:44.503Z,96.50
2022-10-08T17:39:14.983Z,96.20
2022-10-08T17:41:44.591Z,96.80
2022-10-08T17:44:14.819Z,96.60
2022-10-08T17:46:46.159Z,96.30
2022-10-08T17:49:16.243Z,96.90
2022-10-08T17:51:44.910Z,96.90
2022-10-08T17:54:16.447Z,96.70
2022-10-08T17:56:45.106Z,97.00
2022-10-08T17:59:16.611Z,97.00
2022-10-08T18:01:46.041Z,97.10
2022-10-08T18:04:16.779Z,97.40
2022-10-08T18:06:47.544Z,97.40
2022-10-08T18:09:18.603Z,97.20
2022-10-08T18:11:49.485Z,97.20
2022-10-08T18:14:19.919Z,97.20
2022-10-08T18:16:48.977Z,97.20
2022-10-08T18:19:18.089Z,97.10
2022-10-08T18:21:46.693Z,97.20
2022-10-08T18:24:15.671Z,97.20
2022-10-08T18:26:44.528Z,97.40
2022-10-08T18:29:14.791Z,97.30
2022-10-08T18:31:46.664Z,97.30
2022-10-08T18:34:17.801Z,97.30
2022-10-08T18:36:47.047Z,97.40
2022-10-08T18:39:18.008Z,97.20
2022-10-08T18:41:48.682Z,97.30
2022-10-08T18:44:19.885Z,97.40
2022-10-08T18:46:50.048Z,97.40
2022-10-08T18:49:20.111Z,97.40
2022-10-08T18:51:50.740Z,97.40
2022-10-08T18:54:19.436Z,97.20
2022-10-08T18:56:47.811Z,97.10
2022-10-08T18:59:18.178Z,97.20
2022-10-08T19:01:49.970Z,97.50
2022-10-08T19:04:21.107Z,97.50
2022-10-08T19:06:52.265Z,97.50
2022-10-08T19:09:21.265Z,97.50
2022-10-08T19:11:52.547Z,97.20
2022-10-08T19:14:23.761Z,97.40
2022-10-08T19:16:53.721Z,97.50
2022-10-08T19:19:24.726Z,97.40
2022-10-08T19:21:54.425Z,97.60
2022-10-08T19:24:24.997Z,97.50
2022-10-08T19:26:54.724Z,97.50
2022-10-08T19:29:25.498Z,97.50
2022-10-08T19:31:55.323Z,97.50
2022-10-08T19:34:27.352Z,97.00
2022-10-08T19:36:55.946Z,97.60
2022-10-08T19:39:27.584Z,97.50
2022-10-08T19:41:56.190Z,97.50
2022-10-08T19:44:24.763Z,97.30
2022-10-08T19:46:54.734Z,97.60
2022-10-08T19:49:23.445Z,97.30
2022-10-08T19:51:51.885Z,97.50
2022-10-08T19:54:20.277Z,97.60
2022-10-08T19:56:48.798Z,97.50
2022-10-08T19:59:17.665Z,97.50
2022-10-08T20:01:46.273Z,97.40
2022-10-08T20:04:16.907Z,97.30
2022-10-08T20:06:45.525Z,97.40
2022-10-08T20:09:15.511Z,97.40
2022-10-08T20:11:46.587Z,97.70
2022-10-08T20:14:15.995Z,97.80
2022-10-08T20:16:45.154Z,97.80
2022-10-08T20:19:20.710Z,97.40
2022-10-08T20:21:50.632Z,97.80
2022-10-08T20:24:20.316Z,97.80
2022-10-08T20:26:49.455Z,97.60
2022-10-08T20:29:20.403Z,97.10
2022-10-08T20:31:54.063Z,98.00
2022-10-08T20:34:27.051Z,97.70
2022-10-08T20:36:57.958Z,97.70
2022-10-08T20:39:26.328Z,97.70
2022-10-08T20:41:54.676Z,97.70
2022-10-08T20:44:23.337Z,97.70
2022-10-08T20:46:52.764Z,97.60
2022-10-08T20:49:21.171Z,97.90
2022-10-08T20:51:50.882Z,97.80
2022-10-08T20:54:19.295Z,97.60
2022-10-08T20:56:47.715Z,97.70
2022-10-08T20:59:19.269Z,97.70
2022-10-08T21:01:48.262Z,97.70
2022-10-08T21:04:16.949Z,97.30
2022-10-08T21:06:47.634Z,97.30
2022-10-08T21:09:21.280Z,97.70
2022-10-08T21:11:49.964Z,97.60
